Time;durP1;ratioP1;P1;durP2;ratioP2;P2;SDS_P1;SDS_P2;PMS_P1;PMS_P2;Temp;Humidity;BMP_temperature;BMP_pressure;BME280_temperature;BME280_humidity;BME280_pressure;Samples;Min_cycle;Max_cycle;Signal;HPM_P1;HPM_P2
2021/08/15 00:00:15;;;;;;;8.00;4.57;;;;;;;14.98;100.00;101217.44;4986241;28;20104;-68
2021/08/15 00:02:43;;;;;;;9.48;3.78;;;;;;;15.02;100.00;101218.75;4986024;28;20116;-69
2021/08/15 00:05:12;;;;;;;6.43;3.88;;;;;;;15.00;100.00;101215.44;4987767;28;20050;-67
2021/08/15 00:07:41;;;;;;;9.35;4.30;;;;;;;14.92;100.00;101212.81;4987107;28;20385;-68
2021/08/15 00:10:10;;;;;;;8.77;4.32;;;;;;;14.77;100.00;101210.94;4987592;28;20046;-68
2021/08/15 00:12:38;;;;;;;10.90;4.40;;;;;;;14.56;100.00;101202.66;4980890;28;20050;-67
2021/08/15 00:15:09;;;;;;;11.75;4.55;;;;;;;14.44;100.00;101211.16;4987833;28;20050;-67
2021/08/15 00:17:37;;;;;;;8.77;4.70;;;;;;;14.49;100.00;101207.06;4988312;28;20073;-67
2021/08/15 00:20:06;;;;;;;9.15;4.80;;;;;;;14.42;100.00;101198.91;4985844;28;20050;-67
2021/08/15 00:22:37;;;;;;;12.70;4.63;;;;;;;14.46;100.00;101203.75;4984200;28;20109;-67
2021/08/15 00:25:09;;;;;;;11.63;5.20;;;;;;;14.48;100.00;101205.44;4984609;28;20677;-67
2021/08/15 00:27:37;;;;;;;9.40;4.70;;;;;;;14.42;100.00;101202.44;4985679;28;20457;-67
2021/08/15 00:30:06;;;;;;;15.18;5.05;;;;;;;14.43;100.00;101203.25;4987199;28;20034;-67
2021/08/15 00:32:34;;;;;;;10.10;5.85;;;;;;;14.45;100.00;101202.06;4983221;28;20042;-68
2021/08/15 00:35:03;;;;;;;8.68;4.28;;;;;;;14.41;100.00;101203.44;4986716;28;20042;-68
2021/08/15 00:37:31;;;;;;;6.72;3.90;;;;;;;14.44;100.00;101196.88;4982634;28;20047;-67
2021/08/15 00:39:59;;;;;;;6.88;4.32;;;;;;;14.45;100.00;101202.06;4985027;28;20089;-67
2021/08/15 00:42:29;;;;;;;9.85;4.55;;;;;;;14.58;100.00;101193.41;4981223;28;20431;-67
2021/08/15 00:44:57;;;;;;;7.30;4.43;;;;;;;14.63;100.00;101193.72;4986952;28;20045;-68
2021/08/15 00:47:25;;;;;;;12.98;5.18;;;;;;;14.78;100.00;101201.00;4987256;28;20235;-68
2021/08/15 00:49:53;;;;;;;9.68;5.32;;;;;;;14.82;100.00;101191.56;4983725;28;20056;-68
2021/08/15 00:52:20;;;;;;;11.18;5.82;;;;;;;14.82;100.00;101194.25;4984793;28;20054;-68
2021/08/15 00:54:48;;;;;;;11.68;4.78;;;;;;;14.74;100.00;101195.16;4985905;28;20057;-67
2021/08/15 00:57:16;;;;;;;8.55;4.43;;;;;;;14.65;100.00;101190.88;4988539;28;20058;-67
2021/08/15 00:59:45;;;;;;;11.02;4.90;;;;;;;14.73;100.00;101188.09;4990302;28;20082;-67
2021/08/15 01:02:13;;;;;;;10.07;4.38;;;;;;;14.78;100.00;101185.69;4987689;28;20097;-68
2021/08/15 01:04:42;;;;;;;7.90;3.63;;;;;;;14.88;100.00;101179.22;4989415;28;20046;-68
2021/08/15 01:07:10;;;;;;;8.85;5.00;;;;;;;14.80;100.00;101172.91;4989926;28;20054;-68
2021/08/15 01:09:40;;;;;;;9.73;4.18;;;;;;;14.78;100.00;101174.13;4989316;28;20042;-68
2021/08/15 01:12:09;;;;;;;11.85;4.45;;;;;;;14.75;100.00;101163.72;4988136;28;20692;-67
2021/08/15 01:14:37;;;;;;;11.38;4.30;;;;;;;14.73;100.00;101166.59;4987841;28;20043;-68
2021/08/15 01:17:06;;;;;;;8.93;3.90;;;;;;;14.61;100.00;101146.50;4989573;28;20047;-67
2021/08/15 01:19:34;;;;;;;9.98;4.35;;;;;;;14.50;100.00;101153.19;4988289;28;20038;-68
2021/08/15 01:22:02;;;;;;;10.75;4.88;;;;;;;14.34;100.00;101151.44;4986521;28;20231;-68
2021/08/15 01:24:30;;;;;;;12.82;4.63;;;;;;;14.17;100.00;101149.91;4989484;28;20046;-67
2021/08/15 01:27:19;;;;;;;11.32;4.93;;;;;;;14.06;100.00;101152.00;4988409;28;20065;-67
2021/08/15 01:29:49;;;;;;;9.02;4.07;;;;;;;14.12;100.00;101148.56;4989977;28;20284;-68
2021/08/15 01:32:18;;;;;;;8.23;4.30;;;;;;;14.17;100.00;101155.28;4987525;28;20042;-68
2021/08/15 01:34:45;;;;;;;7.53;3.47;;;;;;;14.48;100.00;101136.38;4987347;28;20030;-67
2021/08/15 01:37:13;;;;;;;9.48;3.13;;;;;;;14.70;100.00;101129.34;4992639;28;20112;-68
2021/08/15 01:39:42;;;;;;;7.43;3.55;;;;;;;14.77;100.00;101124.91;4987456;28;20062;-68
2021/08/15 01:42:10;;;;;;;7.15;3.67;;;;;;;14.83;100.00;101122.47;4988375;28;20042;-67
2021/08/15 01:44:38;;;;;;;11.32;3.58;;;;;;;14.80;100.00;101115.63;4986843;28;20038;-68
2021/08/15 01:47:10;;;;;;;8.95;3.25;;;;;;;14.82;100.00;101115.44;4989642;28;20629;-67
2021/08/15 01:49:38;;;;;;;7.55;3.35;;;;;;;14.64;100.00;101113.94;4989474;28;20039;-68
2021/08/15 01:52:06;;;;;;;7.57;3.55;;;;;;;14.47;100.00;101115.91;4985330;28;20043;-68
2021/08/15 01:54:34;;;;;;;10.10;4.05;;;;;;;14.25;100.00;101109.56;4987117;28;20042;-67
2021/08/15 01:57:01;;;;;;;11.90;4.72;;;;;;;14.01;100.00;101115.94;4987137;28;20121;-67
2021/08/15 01:59:29;;;;;;;8.52;4.70;;;;;;;13.82;100.00;101119.91;4987378;28;20038;-67
2021/08/15 02:01:59;;;;;;;7.82;3.70;;;;;;;13.81;100.00;101115.53;4987789;28;20066;-68
2021/08/15 02:04:28;;;;;;;8.25;3.83;;;;;;;13.70;100.00;101120.31;4988645;28;20051;-68
2021/08/15 02:06:56;;;;;;;6.53;3.92;;;;;;;13.60;100.00;101117.00;4991108;28;20049;-67
2021/08/15 02:09:24;;;;;;;9.57;4.88;;;;;;;13.67;100.00;101119.84;4985769;28;20149;-67
2021/08/15 02:11:52;;;;;;;8.98;5.78;;;;;;;13.65;100.00;101119.16;4984747;28;20490;-67
2021/08/15 02:14:20;;;;;;;10.52;5.15;;;;;;;13.52;100.00;101114.38;4987580;28;20104;-67
2021/08/15 02:16:48;;;;;;;10.60;5.80;;;;;;;13.47;100.00;101109.53;4988798;28;20448;-70
2021/08/15 02:19:16;;;;;;;9.32;4.70;;;;;;;13.48;100.00;101113.03;4989411;28;20076;-70
2021/08/15 02:21:45;;;;;;;11.70;5.20;;;;;;;13.31;100.00;101107.75;4985709;28;20100;-70
2021/08/15 02:24:14;;;;;;;11.10;4.93;;;;;;;13.25;100.00;101103.91;4988831;28;20058;-69
2021/08/15 02:26:42;;;;;;;12.43;5.63;;;;;;;13.33;100.00;101094.16;4987798;28;20054;-67
2021/08/15 02:29:09;;;;;;;11.45;5.15;;;;;;;13.41;100.00;101092.28;4987331;28;20050;-68
2021/08/15 02:31:37;;;;;;;10.27;5.10;;;;;;;13.48;100.00;101088.91;4987942;28;20093;-68
2021/08/15 02:34:05;;;;;;;10.88;5.18;;;;;;;13.58;100.00;101087.69;4984832;28;20043;-68
2021/08/15 02:36:33;;;;;;;10.57;4.68;;;;;;;13.71;100.00;101084.41;4988206;28;20046;-68
2021/08/15 02:39:02;;;;;;;8.60;4.50;;;;;;;13.63;100.00;101073.72;4988027;28;20248;-68
2021/08/15 02:41:30;;;;;;;8.32;4.55;;;;;;;13.56;100.00;101078.13;4984553;28;20097;-67
2021/08/15 02:43:58;;;;;;;9.40;4.43;;;;;;;13.59;100.00;101067.91;4988077;28;20042;-67
2021/08/15 02:46:26;;;;;;;7.40;3.97;;;;;;;13.74;100.00;101070.63;4986214;28;20055;-67
2021/08/15 02:48:54;;;;;;;12.13;5.38;;;;;;;13.93;100.00;101072.03;4988001;28;20408;-70
2021/08/15 02:51:22;;;;;;;10.02;4.60;;;;;;;13.68;100.00;101082.09;4986050;28;20284;-68
2021/08/15 02:53:51;;;;;;;9.02;4.68;;;;;;;13.52;100.00;101082.16;4988318;28;20050;-68
2021/08/15 02:56:20;;;;;;;9.32;4.68;;;;;;;13.29;100.00;101061.47;4989232;28;20046;-68
2021/08/15 02:58:48;;;;;;;9.60;5.40;;;;;;;13.12;100.00;101070.59;4986595;28;20331;-68
2021/08/15 03:01:16;;;;;;;8.43;4.47;;;;;;;13.02;100.00;101066.28;4986794;28;20077;-67
2021/08/15 03:03:44;;;;;;;8.48;4.72;;;;;;;13.07;100.00;101066.59;4985243;28;20097;-67
2021/08/15 03:06:12;;;;;;;7.95;4.90;;;;;;;13.12;100.00;101065.25;4988253;28;20038;-67
2021/08/15 03:08:40;;;;;;;12.93;5.60;;;;;;;13.13;100.00;101065.06;4986056;28;20049;-68
2021/08/15 03:11:08;;;;;;;11.05;5.32;;;;;;;13.10;100.00;101062.75;4986797;28;20054;-67
2021/08/15 03:13:37;;;;;;;8.00;4.95;;;;;;;13.32;100.00;101061.13;4984797;28;20327;-67
2021/08/15 03:16:05;;;;;;;11.50;4.22;;;;;;;13.45;100.00;101049.84;4986849;28;20046;-67
2021/08/15 03:18:33;;;;;;;7.32;4.25;;;;;;;13.52;100.00;101050.81;4987109;28;20431;-67
2021/08/15 03:21:00;;;;;;;8.73;3.53;;;;;;;13.60;100.00;101037.34;4985848;28;20125;-68
2021/08/15 03:23:28;;;;;;;9.10;3.30;;;;;;;13.88;100.00;101044.06;4984247;28;20046;-70
2021/08/15 03:25:56;;;;;;;12.45;4.43;;;;;;;13.52;100.00;101039.25;4986216;28;20086;-70
2021/08/15 03:28:24;;;;;;;8.45;4.30;;;;;;;13.34;100.00;101043.00;4987561;28;20089;-70
2021/08/15 03:30:53;;;;;;;10.13;4.57;;;;;;;13.21;100.00;101045.41;4986748;28;20108;-70
2021/08/15 03:33:21;;;;;;;10.95;5.40;;;;;;;13.05;100.00;101038.28;4986178;28;20145;-70
2021/08/15 03:35:49;;;;;;;12.38;5.72;;;;;;;12.83;100.00;101039.84;4986932;28;20128;-67
2021/08/15 03:38:17;;;;;;;11.02;4.80;;;;;;;12.71;100.00;101040.22;4988547;28;20326;-68
2021/08/15 03:40:45;;;;;;;11.20;5.55;;;;;;;12.91;100.00;101039.84;4985842;28;20417;-70
2021/08/15 03:43:13;;;;;;;16.20;6.38;;;;;;;12.92;100.00;101033.47;4986490;28;20058;-67
2021/08/15 03:45:41;;;;;;;13.57;6.03;;;;;;;13.01;100.00;101021.72;4986296;28;20038;-67
2021/08/15 03:48:10;;;;;;;14.30;6.50;;;;;;;12.96;100.00;101024.09;4987485;28;20555;-70
2021/08/15 03:50:38;;;;;;;9.80;5.57;;;;;;;12.94;100.00;101026.09;4987943;28;20042;-70
2021/08/15 03:53:06;;;;;;;9.70;4.65;;;;;;;12.98;100.00;101023.91;4983408;28;20488;-68
2021/08/15 03:55:34;;;;;;;13.35;4.97;;;;;;;12.96;100.00;101023.25;4985574;28;20093;-69
2021/08/15 03:58:02;;;;;;;10.13;4.72;;;;;;;12.95;100.00;101027.75;4987973;28;20077;-68
2021/08/15 04:00:29;;;;;;;8.70;5.00;;;;;;;13.07;100.00;101020.19;4986617;28;20038;-69
2021/08/15 04:02:57;;;;;;;8.40;3.92;;;;;;;13.19;100.00;101017.94;4987921;28;20042;-69
2021/08/15 04:05:27;;;;;;;11.05;4.55;;;;;;;13.18;100.00;101021.63;4986976;28;20046;-69
2021/08/15 04:07:55;;;;;;;10.35;4.68;;;;;;;13.42;100.00;101018.88;4987719;28;20053;-68
2021/08/15 04:10:22;;;;;;;7.95;4.55;;;;;;;13.65;100.00;101012.69;4987134;28;20046;-68
2021/08/15 04:12:50;;;;;;;11.52;5.07;;;;;;;13.63;100.00;101017.38;4984277;28;20101;-69
2021/08/15 04:15:19;;;;;;;13.27;6.05;;;;;;;13.55;100.00;101012.06;4985200;28;20053;-69
2021/08/15 04:17:46;;;;;;;13.30;5.95;;;;;;;13.43;100.00;101008.97;4985471;28;20332;-69
2021/08/15 04:20:15;;;;;;;12.20;6.13;;;;;;;13.32;100.00;101012.84;4985723;28;20051;-69
2021/08/15 04:22:45;;;;;;;14.18;6.28;;;;;;;13.27;100.00;101009.88;4983645;28;20071;-69
2021/08/15 04:25:13;;;;;;;12.65;6.00;;;;;;;13.20;100.00;101019.63;4986233;28;20083;-69
2021/08/15 04:27:41;;;;;;;12.73;7.45;;;;;;;13.15;100.00;101011.25;4987356;28;20431;-68
2021/08/15 04:30:10;;;;;;;16.08;7.28;;;;;;;13.09;100.00;101018.97;4984388;28;20050;-69
2021/08/15 04:32:38;;;;;;;15.57;7.05;;;;;;;13.03;100.00;101016.19;4986898;28;20450;-69
2021/08/15 04:35:07;;;;;;;13.13;6.53;;;;;;;13.03;100.00;101019.69;4991799;28;20054;-69
2021/08/15 04:37:35;;;;;;;13.80;7.55;;;;;;;13.02;100.00;101023.38;4990399;28;20038;-68
2021/08/15 04:40:06;;;;;;;15.88;7.10;;;;;;;12.97;100.00;101022.22;4988661;28;20112;-68
2021/08/15 04:42:34;;;;;;;12.68;6.80;;;;;;;12.94;100.00;101031.44;4990764;28;20378;-68
2021/08/15 04:45:02;;;;;;;12.70;7.47;;;;;;;12.93;100.00;101032.47;4991044;28;20046;-69
2021/08/15 04:47:29;;;;;;;17.60;7.75;;;;;;;12.99;100.00;101034.44;4991223;28;20034;-69
2021/08/15 04:49:58;;;;;;;16.33;7.60;;;;;;;12.99;100.00;101039.81;4989611;28;20053;-69
2021/08/15 04:52:26;;;;;;;13.40;7.47;;;;;;;12.95;100.00;101034.97;4986400;28;20046;-69
2021/08/15 04:54:54;;;;;;;13.50;6.70;;;;;;;12.93;100.00;101035.16;4990339;28;20050;-68
2021/08/15 04:57:23;;;;;;;15.73;7.90;;;;;;;13.12;100.00;101035.75;4990130;28;20376;-68
2021/08/15 04:59:51;;;;;;;13.40;7.30;;;;;;;13.31;100.00;101027.28;4990369;28;20093;-68
2021/08/15 05:02:19;;;;;;;14.55;7.40;;;;;;;13.50;100.00;101031.38;4987939;28;20431;-69
2021/08/15 05:04:48;;;;;;;16.45;7.15;;;;;;;13.65;100.00;101025.25;4988511;28;20411;-68
2021/08/15 05:07:16;;;;;;;14.75;6.82;;;;;;;13.68;100.00;101033.78;4984717;28;20061;-69
2021/08/15 05:09:44;;;;;;;16.17;7.47;;;;;;;13.73;100.00;101034.06;4988150;28;20112;-69
2021/08/15 05:12:11;;;;;;;13.82;6.32;;;;;;;13.83;100.00;101033.00;4985979;28;20058;-69
2021/08/15 05:14:41;;;;;;;13.13;6.40;;;;;;;13.98;100.00;101033.03;4987025;28;20039;-68
2021/08/15 05:17:09;;;;;;;13.15;6.10;;;;;;;13.99;100.00;101030.22;4989030;28;20125;-69
2021/08/15 05:19:36;;;;;;;10.25;5.07;;;;;;;14.09;100.00;101017.34;4988818;28;20105;-69
2021/08/15 05:22:05;;;;;;;12.60;5.68;;;;;;;14.22;100.00;101013.22;4987366;28;20050;-69
2021/08/15 05:24:33;;;;;;;10.25;6.28;;;;;;;14.31;100.00;101012.13;4987675;28;20378;-69
2021/08/15 05:27:01;;;;;;;10.48;5.65;;;;;;;14.47;100.00;101021.84;4987926;28;20053;-69
2021/08/15 05:29:29;;;;;;;12.70;5.40;;;;;;;14.50;100.00;101015.28;4988294;28;20042;-68
2021/08/15 05:31:58;;;;;;;9.27;5.82;;;;;;;14.67;100.00;101003.34;4987900;28;20124;-68
2021/08/15 05:34:26;;;;;;;12.73;6.78;;;;;;;14.84;100.00;101005.88;4984968;28;20481;-68
2021/08/15 05:36:54;;;;;;;9.70;5.22;;;;;;;14.73;100.00;101005.31;4986963;28;20047;-68
2021/08/15 05:39:22;;;;;;;15.10;5.45;;;;;;;14.56;100.00;100999.25;4990461;28;20054;-68
2021/08/15 05:41:50;;;;;;;12.02;5.47;;;;;;;14.62;100.00;100997.72;4985275;28;20442;-67
2021/08/15 05:44:19;;;;;;;13.13;6.03;;;;;;;14.76;100.00;100994.19;4987076;28;20482;-68
2021/08/15 05:46:47;;;;;;;11.73;5.43;;;;;;;14.94;100.00;100995.66;4987851;28;20054;-68
2021/08/15 05:49:16;;;;;;;11.57;6.40;;;;;;;15.12;100.00;100988.00;4989152;28;20042;-68
2021/08/15 05:51:44;;;;;;;11.85;6.15;;;;;;;15.30;100.00;100979.53;4986753;28;20050;-67
2021/08/15 05:54:15;;;;;;;12.77;5.78;;;;;;;15.52;100.00;100981.41;4988839;28;20067;-68
2021/08/15 05:56:43;;;;;;;9.25;5.75;;;;;;;15.93;100.00;100972.69;4988256;28;20332;-68
2021/08/15 05:59:11;;;;;;;11.18;5.70;;;;;;;16.24;100.00;100964.22;4987348;28;20457;-69
2021/08/15 06:01:38;;;;;;;11.30;5.38;;;;;;;16.75;100.00;100962.22;4986149;28;20050;-69
2021/08/15 06:04:06;;;;;;;10.32;5.63;;;;;;;17.11;100.00;100953.91;4986689;28;20058;-68
2021/08/15 06:06:36;;;;;;;6.82;4.53;;;;;;;17.21;100.00;100943.53;4986300;28;20038;-69
2021/08/15 06:09:04;;;;;;;8.70;5.03;;;;;;;17.09;100.00;100945.16;4989378;28;20050;-68
2021/08/15 06:11:31;;;;;;;8.30;4.82;;;;;;;17.04;100.00;100945.78;4985207;28;20042;-68
2021/08/15 06:13:59;;;;;;;14.05;6.05;;;;;;;17.08;100.00;100948.91;4989031;28;20054;-68
2021/08/15 06:16:27;;;;;;;11.63;5.07;;;;;;;17.14;100.00;100942.69;4989545;28;20398;-68
2021/08/15 06:18:55;;;;;;;8.73;4.50;;;;;;;17.10;100.00;100941.44;4990876;28;20069;-68
2021/08/15 06:21:23;;;;;;;7.00;4.50;;;;;;;17.01;100.00;100948.03;4986963;28;20053;-68
2021/08/15 06:23:52;;;;;;;10.48;5.05;;;;;;;17.15;100.00;100938.97;4987809;28;20043;-69
2021/08/15 06:26:20;;;;;;;9.00;4.45;;;;;;;17.17;100.00;100934.19;4990812;28;20093;-69
2021/08/15 06:28:48;;;;;;;6.97;3.90;;;;;;;17.02;100.00;100922.72;4986350;28;20390;-68
2021/08/15 06:31:21;;;;;;;8.60;4.75;;;;;;;17.21;100.00;100929.22;4987159;28;20054;-68
2021/08/15 06:33:49;;;;;;;9.30;4.70;;;;;;;17.22;100.00;100938.97;4989819;28;20104;-68
2021/08/15 06:36:17;;;;;;;7.10;4.60;;;;;;;17.19;100.00;100950.16;4987278;28;20042;-68
2021/08/15 06:38:45;;;;;;;9.32;5.13;;;;;;;17.32;100.00;100938.56;4988269;28;20046;-68
2021/08/15 06:41:14;;;;;;;11.35;5.28;;;;;;;17.43;100.00;100948.75;4987758;28;20058;-68
2021/08/15 06:43:42;;;;;;;9.10;4.40;;;;;;;17.60;100.00;100946.50;4984400;28;20046;-68
2021/08/15 06:46:12;;;;;;;6.72;4.55;;;;;;;17.47;100.00;100954.59;4987619;28;20042;-68
2021/08/15 06:48:41;;;;;;;7.35;4.00;;;;;;;17.54;100.00;100964.34;4988288;28;20346;-68
2021/08/15 06:51:09;;;;;;;9.65;4.40;;;;;;;17.14;100.00;100961.59;4989689;28;20096;-68
2021/08/15 06:53:38;;;;;;;7.63;4.32;;;;;;;17.66;100.00;100947.53;4985764;28;20070;-68
2021/08/15 06:56:08;;;;;;;8.85;4.30;;;;;;;17.49;100.00;100947.13;4988181;28;20042;-68
2021/08/15 06:58:37;;;;;;;7.15;4.22;;;;;;;17.17;100.00;100953.06;4988341;28;20045;-68
2021/08/15 07:01:05;;;;;;;6.18;3.85;;;;;;;17.48;100.00;100953.53;4991131;28;20105;-68
2021/08/15 07:03:34;;;;;;;7.13;4.28;;;;;;;17.46;100.00;100944.84;4984360;28;20047;-69
2021/08/15 07:06:02;;;;;;;7.13;4.18;;;;;;;17.54;100.00;100950.84;4989140;28;20060;-69
2021/08/15 07:08:30;;;;;;;8.40;4.43;;;;;;;17.83;100.00;100950.66;4988748;28;20034;-69
2021/08/15 07:10:58;;;;;;;6.78;3.70;;;;;;;17.54;100.00;100947.34;4986911;28;20050;-69
2021/08/15 07:13:26;;;;;;;10.95;4.50;;;;;;;17.25;100.00;100948.53;4985727;28;20053;-69
2021/08/15 07:15:56;;;;;;;7.18;4.35;;;;;;;17.40;100.00;100956.47;4987070;28;20038;-68
2021/08/15 07:18:24;;;;;;;8.32;4.38;;;;;;;17.47;100.00;100958.13;4988971;28;20034;-69
2021/08/15 07:20:57;;;;;;;8.43;4.32;;;;;;;17.59;100.00;100960.22;4985831;28;20045;-68
2021/08/15 07:23:25;;;;;;;11.15;4.60;;;;;;;17.99;100.00;100949.44;4985423;28;20054;-68
2021/08/15 07:25:53;;;;;;;8.23;4.38;;;;;;;18.26;100.00;100936.75;4988600;28;20050;-69
2021/08/15 07:28:21;;;;;;;10.27;4.22;;;;;;;18.45;100.00;100926.91;4986886;28;20039;-69
2021/08/15 07:30:49;;;;;;;7.40;4.00;;;;;;;18.64;100.00;100929.75;4986787;28;20488;-69
2021/08/15 07:33:19;;;;;;;7.40;3.50;;;;;;;18.44;100.00;100925.22;4981618;28;20104;-71
2021/08/15 07:35:48;;;;;;;8.68;3.65;;;;;;;18.96;100.00;100921.75;4985592;28;20058;-69
2021/08/15 07:38:16;;;;;;;9.60;4.45;;;;;;;20.44;100.00;100914.91;4988132;28;20367;-70
2021/08/15 07:40:44;;;;;;;6.60;3.50;;;;;;;19.57;100.00;100921.13;4983422;28;20073;-70
2021/08/15 07:43:12;;;;;;;6.93;3.60;;;;;;;20.81;100.00;100922.22;4985912;28;20330;-69
2021/08/15 07:45:40;;;;;;;8.15;3.60;;;;;;;20.37;100.00;100926.88;4985315;28;20065;-70
2021/08/15 07:48:08;;;;;;;6.50;2.97;;;;;;;21.72;100.00;100926.72;4987399;28;20042;-69
2021/08/15 07:50:38;;;;;;;7.95;4.63;;;;;;;21.01;100.00;100926.53;4985637;28;20046;-69
2021/08/15 07:53:21;;;;;;;8.30;3.55;;;;;;;20.72;100.00;100934.44;4982415;28;20147;-69
2021/08/15 07:55:50;;;;;;;7.55;3.72;;;;;;;22.29;100.00;100921.53;4985450;28;20046;-69
2021/08/15 07:58:18;;;;;;;9.82;3.75;;;;;;;22.22;100.00;100923.56;4985846;28;20042;-69
2021/08/15 08:00:46;;;;;;;9.45;3.47;;;;;;;20.52;100.00;100919.19;4986236;28;20061;-69
2021/08/15 08:03:14;;;;;;;9.20;3.78;;;;;;;21.77;100.00;100918.72;4985922;28;20350;-71
2021/08/15 08:05:44;;;;;;;8.63;3.15;;;;;;;21.54;100.00;100916.81;4985433;28;20043;-69
2021/08/15 08:08:12;;;;;;;7.13;3.67;;;;;;;22.64;100.00;100915.22;4987291;28;20124;-69
2021/08/15 08:10:41;;;;;;;9.73;3.53;;;;;;;21.45;100.00;100911.69;4984392;28;20587;-68
2021/08/15 08:13:09;;;;;;;6.20;3.03;;;;;;;22.52;100.00;100906.25;4984097;28;20042;-68
2021/08/15 08:15:38;;;;;;;8.38;3.05;;;;;;;23.75;100.00;100895.94;4984899;28;20038;-68
2021/08/15 08:18:07;;;;;;;8.00;3.30;;;;;;;23.59;100.00;100884.81;4986527;28;20101;-70
2021/08/15 08:20:36;;;;;;;8.48;3.20;;;;;;;22.94;100.00;100897.00;4986266;28;20089;-68
2021/08/15 08:23:06;;;;;;;6.45;3.20;;;;;;;22.63;100.00;100902.69;4982896;28;20053;-68
2021/08/15 08:25:35;;;;;;;5.72;3.00;;;;;;;24.01;100.00;100900.72;4987309;28;20069;-68
2021/08/15 08:28:03;;;;;;;5.45;3.15;;;;;;;24.04;100.00;100897.50;4986318;28;20045;-68
2021/08/15 08:30:31;;;;;;;10.88;3.10;;;;;;;25.18;100.00;100901.59;4986815;28;20197;-68
2021/08/15 08:32:59;;;;;;;5.63;3.13;;;;;;;25.22;100.00;100894.47;4986490;28;20056;-68
2021/08/15 08:35:28;;;;;;;7.00;3.80;;;;;;;24.20;100.00;100895.00;4984721;28;20050;-69
2021/08/15 08:37:55;;;;;;;7.47;3.10;;;;;;;24.31;100.00;100893.19;4987048;28;20089;-69
2021/08/15 08:40:25;;;;;;;8.40;3.00;;;;;;;24.61;100.00;100894.69;4986130;28;20125;-68
2021/08/15 08:42:53;;;;;;;6.63;3.05;;;;;;;24.14;100.00;100890.53;4981897;28;20439;-68
2021/08/15 08:45:24;;;;;;;7.78;3.10;;;;;;;24.45;100.00;100897.19;4998344;28;20129;-68
2021/08/15 08:47:53;;;;;;;7.30;2.75;;;;;;;24.35;100.00;100897.06;4983473;28;20050;-69
2021/08/15 08:50:22;;;;;;;8.65;3.70;;;;;;;24.07;100.00;100896.16;4985055;28;20569;-68
2021/08/15 08:52:50;;;;;;;4.93;2.90;;;;;;;24.68;100.00;100889.84;4985923;28;20144;-68
2021/08/15 08:55:19;;;;;;;7.22;3.80;;;;;;;26.30;100.00;100881.63;4984281;28;20054;-68
2021/08/15 08:57:48;;;;;;;6.97;3.60;;;;;;;26.33;100.00;100877.53;4987210;28;20060;-69
2021/08/15 09:00:18;;;;;;;5.60;3.30;;;;;;;26.53;100.00;100874.03;4984361;28;20182;-70
2021/08/15 09:02:46;;;;;;;6.85;3.20;;;;;;;26.81;100.00;100870.03;4982580;28;20070;-69
2021/08/15 09:05:15;;;;;;;5.15;3.03;;;;;;;25.99;100.00;100881.41;4986202;28;20438;-69
2021/08/15 09:07:43;;;;;;;5.95;3.17;;;;;;;24.45;100.00;100872.63;4983274;28;20359;-69
2021/08/15 09:10:14;;;;;;;6.82;3.03;;;;;;;23.73;100.00;100868.94;4984430;28;20104;-68
2021/08/15 09:12:44;;;;;;;8.75;3.58;;;;;;;24.44;100.00;100872.88;4981328;28;20042;-69
2021/08/15 09:15:16;;;;;;;10.82;3.15;;;;;;;23.50;100.00;100862.59;4981601;28;20050;-68
2021/08/15 09:17:45;;;;;;;5.72;3.05;;;;;;;22.31;100.00;100861.44;4985731;28;20089;-68
2021/08/15 09:20:17;;;;;;;5.90;3.25;;;;;;;22.40;100.00;100861.94;4988198;28;20054;-68
2021/08/15 09:22:45;;;;;;;8.43;2.85;;;;;;;24.24;100.00;100856.03;4985351;28;20042;-68
2021/08/15 09:25:18;;;;;;;5.93;2.78;;;;;;;25.26;100.00;100851.91;4984368;28;20053;-68
2021/08/15 09:27:47;;;;;;;6.22;3.08;;;;;;;25.00;100.00;100848.94;4986893;28;20050;-69
2021/08/15 09:30:20;;;;;;;5.85;3.60;;;;;;;24.68;100.00;100844.28;4988801;28;20335;-68
2021/08/15 09:32:54;;;;;;;7.07;2.80;;;;;;;25.20;100.00;100833.81;4983291;28;20050;-68
2021/08/15 09:35:25;;;;;;;9.23;3.08;;;;;;;25.42;100.00;100837.31;4981344;28;20360;-68
2021/08/15 09:38:05;;;;;;;6.68;3.35;;;;;;;26.32;100.00;100835.63;4986747;28;20048;-70
2021/08/15 09:40:37;;;;;;;5.55;2.63;;;;;;;27.38;100.00;100831.72;4985573;28;20267;-70
2021/08/15 09:43:07;;;;;;;6.57;2.92;;;;;;;25.17;100.00;100842.53;4984183;28;20042;-70
2021/08/15 09:45:44;;;;;;;6.47;3.00;;;;;;;25.76;100.00;100836.16;4988136;28;20489;-68
2021/08/15 09:48:24;;;;;;;8.25;2.65;;;;;;;26.11;100.00;100823.78;4988882;28;20101;-70
2021/08/15 09:51:04;;;;;;;5.93;3.38;;;;;;;26.10;100.00;100827.63;4988286;28;20061;-70
2021/08/15 09:53:32;;;;;;;9.13;3.17;;;;;;;25.22;100.00;100820.72;4986231;28;20043;-70
2021/08/15 09:56:00;;;;;;;5.80;3.00;;;;;;;25.93;100.00;100816.84;4988987;28;20093;-68
2021/08/15 09:58:28;;;;;;;8.75;2.95;;;;;;;27.71;100.00;100811.06;4989874;28;20462;-71
2021/08/15 10:00:58;;;;;;;7.28;2.42;;;;;;;26.98;100.00;100809.50;4986510;28;20050;-68
2021/08/15 10:03:26;;;;;;;5.13;3.00;;;;;;;27.99;100.00;100808.84;4985963;28;20072;-68
2021/08/15 10:05:56;;;;;;;7.78;3.60;;;;;;;26.62;100.00;100809.41;4989348;28;20048;-69
2021/08/15 10:08:24;;;;;;;8.15;3.30;;;;;;;27.11;100.00;100806.22;4990763;28;20046;-68
2021/08/15 10:10:52;;;;;;;5.70;3.00;;;;;;;28.57;100.00;100804.69;4986543;28;20046;-68
2021/08/15 10:13:20;;;;;;;7.68;3.03;;;;;;;28.51;100.00;100806.66;4986475;28;20057;-68
2021/08/15 10:15:56;;;;;;;5.25;2.60;;;;;;;27.97;100.00;100797.25;4984930;28;20038;-71
2021/08/15 10:18:27;;;;;;;6.72;2.50;;;;;;;27.64;100.00;100794.94;4986583;28;20035;-68
2021/08/15 10:21:13;;;;;;;8.35;3.10;;;;;;;25.65;100.00;100788.78;4989843;28;20334;-70
2021/08/15 10:23:43;;;;;;;4.22;2.70;;;;;;;25.91;100.00;100795.22;4985548;28;20054;-71
2021/08/15 10:26:39;;;;;;;5.68;2.55;;;;;;;25.06;100.00;100789.72;4988254;28;20054;-67
2021/08/15 10:29:33;;;;;;;7.30;3.03;;;;;;;26.34;100.00;100788.81;4988905;28;20043;-68
2021/08/15 10:32:15;;;;;;;5.90;2.75;;;;;;;26.19;100.00;100782.22;4986078;28;20043;-67
2021/08/15 10:35:15;;;;;;;3.85;2.42;;;;;;;27.43;100.00;100788.66;4987690;28;20043;-70
2021/08/15 10:37:45;;;;;;;7.35;2.90;;;;;;;27.71;100.00;100780.09;4943885;28;20082;-68
2021/08/15 10:40:47;;;;;;;5.30;2.50;;;;;;;27.04;100.00;100775.53;4985431;28;20055;-68
2021/08/15 10:43:16;;;;;;;4.72;2.70;;;;;;;26.12;100.00;100777.00;4901210;29;20044;-68
2021/08/15 10:45:44;;;;;;;4.65;2.50;;;;;;;27.41;100.00;100771.66;4905107;29;20459;-68
2021/08/15 10:48:25;;;;;;;5.32;2.60;;;;;;;26.96;100.00;100776.06;4942852;28;20270;-70
2021/08/15 10:50:56;;;;;;;7.05;3.28;;;;;;;28.20;100.00;100776.63;4983441;28;20049;-71
2021/08/15 10:53:37;;;;;;;3.72;2.20;;;;;;;28.19;100.00;100761.25;4984407;28;20030;-68
2021/08/15 10:56:07;;;;;;;5.05;2.70;;;;;;;26.52;100.00;100768.34;4986964;28;20442;-68
2021/08/15 10:58:37;;;;;;;5.30;3.28;;;;;;;26.19;100.00;100757.59;4988107;28;20046;-70
2021/08/15 11:01:06;;;;;;;4.43;2.47;;;;;;;27.39;100.00;100759.31;4985428;28;20039;-70
2021/08/15 11:03:53;;;;;;;6.60;2.55;;;;;;;27.07;100.00;100758.53;4987304;28;20042;-70
2021/08/15 11:06:45;;;;;;;4.18;2.20;;;;;;;27.42;100.00;100748.63;4988199;28;20108;-68
2021/08/15 11:09:13;;;;;;;8.85;2.63;;;;;;;27.54;100.00;100747.50;4987959;28;20053;-70
2021/08/15 11:12:14;;;;;;;6.15;2.63;;;;;;;26.80;100.00;100748.66;4983167;28;20042;-70
2021/08/15 11:15:06;;;;;;;7.60;3.08;;;;;;;27.22;100.00;100741.25;4984304;28;20396;-70
2021/08/15 11:17:35;;;;;;;5.75;2.80;;;;;;;26.96;100.00;100734.97;4986854;28;20794;-70
2021/08/15 11:20:34;;;;;;;6.43;2.88;;;;;;;26.63;100.00;100742.63;4986198;28;20315;-70
2021/08/15 11:23:12;;;;;;;6.40;2.80;;;;;;;26.24;100.00;100732.16;4984095;28;20054;-70
2021/08/15 11:25:40;;;;;;;8.40;2.90;;;;;;;27.86;100.00;100727.06;4985193;28;20555;-70